sensor_id;sensor_type;location;lat;lon;timestamp;temperature;humidity
56538;DHT22;42435;53.292;6.000;2022-08-07T00:00:32;15.30;68.80
56538;DHT22;42435;53.292;6.000;2022-08-07T00:02:58;15.30;68.70
56538;DHT22;42435;53.292;6.000;2022-08-07T00:05:25;15.20;68.50
56538;DHT22;42435;53.292;6.000;2022-08-07T00:07:51;15.20;68.70
56538;DHT22;42435;53.292;6.000;2022-08-07T00:10:17;15.20;69.00
56538;DHT22;42435;53.292;6.000;2022-08-07T00:12:43;15.20;69.10
56538;DHT22;42435;53.292;6.000;2022-08-07T00:15:09;15.20;69.10
56538;DHT22;42435;53.292;6.000;2022-08-07T00:17:35;15.10;69.30
56538;DHT22;42435;53.292;6.000;2022-08-07T00:20:02;15.10;69.50
56538;DHT22;42435;53.292;6.000;2022-08-07T00:22:28;15.10;69.40
56538;DHT22;42435;53.292;6.000;2022-08-07T00:24:53;15.00;69.40
56538;DHT22;42435;53.292;6.000;2022-08-07T00:27:19;15.00;69.30
56538;DHT22;42435;53.292;6.000;2022-08-07T00:29:44;14.90;69.40
56538;DHT22;42435;53.292;6.000;2022-08-07T00:32:11;14.90;69.60
56538;DHT22;42435;53.292;6.000;2022-08-07T00:34:38;14.90;69.80
56538;DHT22;42435;53.292;6.000;2022-08-07T00:37:04;14.90;70.00
56538;DHT22;42435;53.292;6.000;2022-08-07T00:39:29;14.90;70.20
56538;DHT22;42435;53.292;6.000;2022-08-07T00:41:57;14.90;70.30
56538;DHT22;42435;53.292;6.000;2022-08-07T00:44:23;14.90;70.50
56538;DHT22;42435;53.292;6.000;2022-08-07T00:46:49;14.90;70.50
56538;DHT22;42435;53.292;6.000;2022-08-07T00:49:14;14.90;70.30
56538;DHT22;42435;53.292;6.000;2022-08-07T00:51:41;14.90;70.40
56538;DHT22;42435;53.292;6.000;2022-08-07T00:54:06;14.90;70.50
56538;DHT22;42435;53.292;6.000;2022-08-07T00:56:33;14.90;70.60
56538;DHT22;42435;53.292;6.000;2022-08-07T00:58:59;14.90;70.60
56538;DHT22;42435;53.292;6.000;2022-08-07T01:01:25;14.90;70.80
56538;DHT22;42435;53.292;6.000;2022-08-07T01:03:51;14.90;71.00
56538;DHT22;42435;53.292;6.000;2022-08-07T01:06:17;14.90;71.00
56538;DHT22;42435;53.292;6.000;2022-08-07T01:08:44;14.80;70.90
56538;DHT22;42435;53.292;6.000;2022-08-07T01:11:11;14.80;70.90
56538;DHT22;42435;53.292;6.000;2022-08-07T01:13:37;14.80;71.20
56538;DHT22;42435;53.292;6.000;2022-08-07T01:16:04;14.80;71.00
56538;DHT22;42435;53.292;6.000;2022-08-07T01:18:30;14.80;71.20
56538;DHT22;42435;53.292;6.000;2022-08-07T01:21:16;14.70;71.40
56538;DHT22;42435;53.292;6.000;2022-08-07T01:23:45;14.80;71.30
56538;DHT22;42435;53.292;6.000;2022-08-07T01:26:13;14.70;71.40
56538;DHT22;42435;53.292;6.000;2022-08-07T01:28:41;14.70;71.50
56538;DHT22;42435;53.292;6.000;2022-08-07T01:31:07;14.70;71.30
56538;DHT22;42435;53.292;6.000;2022-08-07T01:33:34;14.70;71.50
56538;DHT22;42435;53.292;6.000;2022-08-07T01:36:00;14.70;71.60
56538;DHT22;42435;53.292;6.000;2022-08-07T01:38:28;14.70;71.70
56538;DHT22;42435;53.292;6.000;2022-08-07T01:40:57;14.70;71.80
56538;DHT22;42435;53.292;6.000;2022-08-07T01:43:23;14.60;71.80
56538;DHT22;42435;53.292;6.000;2022-08-07T01:45:50;14.60;71.90
56538;DHT22;42435;53.292;6.000;2022-08-07T01:48:16;14.60;71.90
56538;DHT22;42435;53.292;6.000;2022-08-07T01:50:44;14.60;71.70
56538;DHT22;42435;53.292;6.000;2022-08-07T01:53:12;14.60;71.80
56538;DHT22;42435;53.292;6.000;2022-08-07T01:55:43;14.60;71.90
56538;DHT22;42435;53.292;6.000;2022-08-07T01:58:12;14.50;71.90
56538;DHT22;42435;53.292;6.000;2022-08-07T02:00:39;14.50;71.70
56538;DHT22;42435;53.292;6.000;2022-08-07T02:03:10;14.50;71.70
56538;DHT22;42435;53.292;6.000;2022-08-07T02:05:40;14.40;72.00
56538;DHT22;42435;53.292;6.000;2022-08-07T02:08:10;14.40;72.10
56538;DHT22;42435;53.292;6.000;2022-08-07T02:10:38;14.40;71.90
56538;DHT22;42435;53.292;6.000;2022-08-07T02:13:05;14.40;72.00
56538;DHT22;42435;53.292;6.000;2022-08-07T02:15:32;14.30;71.90
56538;DHT22;42435;53.292;6.000;2022-08-07T02:17:59;14.30;71.90
56538;DHT22;42435;53.292;6.000;2022-08-07T02:20:26;14.30;71.80
56538;DHT22;42435;53.292;6.000;2022-08-07T02:23:00;14.30;71.70
56538;DHT22;42435;53.292;6.000;2022-08-07T02:25:28;14.20;71.70
56538;DHT22;42435;53.292;6.000;2022-08-07T02:27:55;14.20;71.70
56538;DHT22;42435;53.292;6.000;2022-08-07T02:30:22;14.20;71.90
56538;DHT22;42435;53.292;6.000;2022-08-07T02:32:48;14.20;72.00
56538;DHT22;42435;53.292;6.000;2022-08-07T02:35:15;14.20;71.90
56538;DHT22;42435;53.292;6.000;2022-08-07T02:37:44;14.20;72.00
56538;DHT22;42435;53.292;6.000;2022-08-07T02:40:11;14.20;72.00
56538;DHT22;42435;53.292;6.000;2022-08-07T02:42:37;14.20;72.10
56538;DHT22;42435;53.292;6.000;2022-08-07T02:45:05;14.10;72.10
56538;DHT22;42435;53.292;6.000;2022-08-07T02:47:31;14.10;72.00
56538;DHT22;42435;53.292;6.000;2022-08-07T02:49:57;14.20;72.20
56538;DHT22;42435;53.292;6.000;2022-08-07T02:52:34;14.10;72.20
56538;DHT22;42435;53.292;6.000;2022-08-07T02:55:08;14.10;72.30
56538;DHT22;42435;53.292;6.000;2022-08-07T02:57:36;14.10;72.30
56538;DHT22;42435;53.292;6.000;2022-08-07T03:00:04;14.10;72.30
56538;DHT22;42435;53.292;6.000;2022-08-07T03:02:30;14.00;72.40
56538;DHT22;42435;53.292;6.000;2022-08-07T03:04:57;14.00;72.40
56538;DHT22;42435;53.292;6.000;2022-08-07T03:07:25;14.00;72.40
56538;DHT22;42435;53.292;6.000;2022-08-07T03:09:51;14.00;72.60
56538;DHT22;42435;53.292;6.000;2022-08-07T03:12:17;14.00;72.80
56538;DHT22;42435;53.292;6.000;2022-08-07T03:14:43;14.00;72.60
56538;DHT22;42435;53.292;6.000;2022-08-07T03:17:10;14.00;72.50
56538;DHT22;42435;53.292;6.000;2022-08-07T03:19:36;13.90;72.70
56538;DHT22;42435;53.292;6.000;2022-08-07T03:22:04;13.90;72.90
56538;DHT22;42435;53.292;6.000;2022-08-07T03:24:30;13.90;73.20
56538;DHT22;42435;53.292;6.000;2022-08-07T03:27:00;13.90;72.90
56538;DHT22;42435;53.292;6.000;2022-08-07T03:29:33;13.90;73.00
56538;DHT22;42435;53.292;6.000;2022-08-07T03:32:01;13.90;73.10
56538;DHT22;42435;53.292;6.000;2022-08-07T03:34:29;13.90;72.90
56538;DHT22;42435;53.292;6.000;2022-08-07T03:36:56;13.90;73.10
56538;DHT22;42435;53.292;6.000;2022-08-07T03:39:24;13.90;73.20
56538;DHT22;42435;53.292;6.000;2022-08-07T03:41:50;13.90;73.40
56538;DHT22;42435;53.292;6.000;2022-08-07T03:44:16;13.90;73.20
56538;DHT22;42435;53.292;6.000;2022-08-07T03:46:42;13.90;73.30
56538;DHT22;42435;53.292;6.000;2022-08-07T03:49:08;13.90;73.20
56538;DHT22;42435;53.292;6.000;2022-08-07T03:51:34;13.90;73.30
56538;DHT22;42435;53.292;6.000;2022-08-07T03:54:01;13.90;73.30
56538;DHT22;42435;53.292;6.000;2022-08-07T03:56:29;13.80;73.20
56538;DHT22;42435;53.292;6.000;2022-08-07T03:58:55;13.80;73.30
56538;DHT22;42435;53.292;6.000;2022-08-07T04:01:22;13.80;73.40
56538;DHT22;42435;53.292;6.000;2022-08-07T04:03:48;13.80;73.50
56538;DHT22;42435;53.292;6.000;2022-08-07T04:06:14;13.90;73.60
56538;DHT22;42435;53.292;6.000;2022-08-07T04:08:41;13.90;73.60
56538;DHT22;42435;53.292;6.000;2022-08-07T04:11:10;13.80;73.70
56538;DHT22;42435;53.292;6.000;2022-08-07T04:13:36;13.80;73.90
56538;DHT22;42435;53.292;6.000;2022-08-07T04:16:02;13.80;73.80
56538;DHT22;42435;53.292;6.000;2022-08-07T04:18:28;13.80;73.80
56538;DHT22;42435;53.292;6.000;2022-08-07T04:20:53;13.80;73.90
56538;DHT22;42435;53.292;6.000;2022-08-07T04:23:19;13.80;73.90
56538;DHT22;42435;53.292;6.000;2022-08-07T04:25:46;13.80;73.80
56538;DHT22;42435;53.292;6.000;2022-08-07T04:28:13;13.80;73.90
56538;DHT22;42435;53.292;6.000;2022-08-07T04:30:38;13.80;73.80
56538;DHT22;42435;53.292;6.000;2022-08-07T04:33:06;13.80;73.90
56538;DHT22;42435;53.292;6.000;2022-08-07T04:35:33;13.90;74.00
56538;DHT22;42435;53.292;6.000;2022-08-07T04:37:58;13.90;74.00
56538;DHT22;42435;53.292;6.000;2022-08-07T04:40:24;13.90;73.90
56538;DHT22;42435;53.292;6.000;2022-08-07T04:42:50;13.90;73.80
56538;DHT22;42435;53.292;6.000;2022-08-07T04:45:16;13.90;73.80
56538;DHT22;42435;53.292;6.000;2022-08-07T04:48:07;13.90;73.80
56538;DHT22;42435;53.292;6.000;2022-08-07T04:50:38;13.90;73.70
56538;DHT22;42435;53.292;6.000;2022-08-07T04:55:58;13.90;73.70
56538;DHT22;42435;53.292;6.000;2022-08-07T05:01:39;14.00;73.70
56538;DHT22;42435;53.292;6.000;2022-08-07T05:04:14;14.00;73.50
56538;DHT22;42435;53.292;6.000;2022-08-07T05:07:00;14.00;73.50
56538;DHT22;42435;53.292;6.000;2022-08-07T05:09:45;14.10;73.40
56538;DHT22;42435;53.292;6.000;2022-08-07T05:12:17;14.00;72.70
56538;DHT22;42435;53.292;6.000;2022-08-07T05:14:45;14.10;72.90
56538;DHT22;42435;53.292;6.000;2022-08-07T05:17:14;14.10;72.90
56538;DHT22;42435;53.292;6.000;2022-08-07T05:19:46;14.20;72.80
56538;DHT22;42435;53.292;6.000;2022-08-07T05:22:13;14.20;72.90
56538;DHT22;42435;53.292;6.000;2022-08-07T05:24:40;14.20;72.80
56538;DHT22;42435;53.292;6.000;2022-08-07T05:27:09;14.30;72.80
56538;DHT22;42435;53.292;6.000;2022-08-07T05:29:37;14.40;72.80
56538;DHT22;42435;53.292;6.000;2022-08-07T05:32:06;14.40;72.70
56538;DHT22;42435;53.292;6.000;2022-08-07T05:34:32;14.40;72.60
56538;DHT22;42435;53.292;6.000;2022-08-07T05:37:00;14.50;72.50
56538;DHT22;42435;53.292;6.000;2022-08-07T05:39:26;14.60;72.30
56538;DHT22;42435;53.292;6.000;2022-08-07T05:41:52;14.70;72.20
56538;DHT22;42435;53.292;6.000;2022-08-07T05:44:19;14.70;72.10
56538;DHT22;42435;53.292;6.000;2022-08-07T05:46:48;14.80;72.10
56538;DHT22;42435;53.292;6.000;2022-08-07T05:49:14;14.90;72.00
56538;DHT22;42435;53.292;6.000;2022-08-07T05:51:44;15.00;71.80
56538;DHT22;42435;53.292;6.000;2022-08-07T05:54:10;15.10;71.80
56538;DHT22;42435;53.292;6.000;2022-08-07T05:56:36;15.20;71.60
56538;DHT22;42435;53.292;6.000;2022-08-07T05:59:05;15.30;71.50
56538;DHT22;42435;53.292;6.000;2022-08-07T06:01:34;15.40;71.30
56538;DHT22;42435;53.292;6.000;2022-08-07T06:04:03;15.60;70.80
56538;DHT22;42435;53.292;6.000;2022-08-07T06:06:31;16.20;69.40
56538;DHT22;42435;53.292;6.000;2022-08-07T06:08:58;16.80;67.80
56538;DHT22;42435;53.292;6.000;2022-08-07T06:11:25;17.10;67.20
56538;DHT22;42435;53.292;6.000;2022-08-07T06:13:51;17.10;66.90
56538;DHT22;42435;53.292;6.000;2022-08-07T06:16:17;17.10;67.20
56538;DHT22;42435;53.292;6.000;2022-08-07T06:18:44;17.40;66.90
56538;DHT22;42435;53.292;6.000;2022-08-07T06:21:11;17.70;65.80
56538;DHT22;42435;53.292;6.000;2022-08-07T06:23:37;18.10;64.80
56538;DHT22;42435;53.292;6.000;2022-08-07T06:26:05;18.30;64.30
56538;DHT22;42435;53.292;6.000;2022-08-07T06:28:31;18.60;63.70
56538;DHT22;42435;53.292;6.000;2022-08-07T06:30:57;19.10;62.60
56538;DHT22;42435;53.292;6.000;2022-08-07T06:33:23;19.60;61.30
56538;DHT22;42435;53.292;6.000;2022-08-07T06:35:49;20.00;60.20
56538;DHT22;42435;53.292;6.000;2022-08-07T06:38:14;20.40;59.30
56538;DHT22;42435;53.292;6.000;2022-08-07T06:40:45;20.80;58.50
56538;DHT22;42435;53.292;6.000;2022-08-07T06:43:12;21.00;57.70
56538;DHT22;42435;53.292;6.000;2022-08-07T06:45:40;21.30;57.30
56538;DHT22;42435;53.292;6.000;2022-08-07T06:48:06;21.50;56.80
56538;DHT22;42435;53.292;6.000;2022-08-07T06:50:34;21.70;56.60
56538;DHT22;42435;53.292;6.000;2022-08-07T06:53:02;21.90;56.30
56538;DHT22;42435;53.292;6.000;2022-08-07T06:55:30;21.90;56.20
56538;DHT22;42435;53.292;6.000;2022-08-07T06:57:59;22.00;55.90
56538;DHT22;42435;53.292;6.000;2022-08-07T07:00:27;22.10;55.70
56538;DHT22;42435;53.292;6.000;2022-08-07T07:02:55;22.30;55.30
56538;DHT22;42435;53.292;6.000;2022-08-07T07:05:21;22.40;55.00
56538;DHT22;42435;53.292;6.000;2022-08-07T07:07:47;22.50;54.90
56538;DHT22;42435;53.292;6.000;2022-08-07T07:10:13;22.60;54.60
56538;DHT22;42435;53.292;6.000;2022-08-07T07:12:48;22.60;54.40
56538;DHT22;42435;53.292;6.000;2022-08-07T07:15:30;22.70;53.90
56538;DHT22;42435;53.292;6.000;2022-08-07T07:18:14;22.70;53.90
56538;DHT22;42435;53.292;6.000;2022-08-07T07:20:55;22.70;54.10
56538;DHT22;42435;53.292;6.000;2022-08-07T07:23:22;22.70;54.40
56538;DHT22;42435;53.292;6.000;2022-08-07T07:25:51;22.80;54.70
56538;DHT22;42435;53.292;6.000;2022-08-07T07:28:34;23.00;54.50
56538;DHT22;42435;53.292;6.000;2022-08-07T07:31:05;23.20;53.80
56538;DHT22;42435;53.292;6.000;2022-08-07T07:33:34;23.20;53.20
56538;DHT22;42435;53.292;6.000;2022-08-07T07:36:00;23.40;52.90
56538;DHT22;42435;53.292;6.000;2022-08-07T07:38:27;23.50;52.80
56538;DHT22;42435;53.292;6.000;2022-08-07T07:40:57;23.40;52.70
56538;DHT22;42435;53.292;6.000;2022-08-07T07:43:25;23.50;52.90
56538;DHT22;42435;53.292;6.000;2022-08-07T07:45:51;23.70;52.40
56538;DHT22;42435;53.292;6.000;2022-08-07T07:48:20;23.70;52.20
56538;DHT22;42435;53.292;6.000;2022-08-07T07:50:47;23.70;51.90
56538;DHT22;42435;53.292;6.000;2022-08-07T07:53:16;23.80;51.70
56538;DHT22;42435;53.292;6.000;2022-08-07T07:55:43;23.90;51.30
56538;DHT22;42435;53.292;6.000;2022-08-07T07:58:09;24.10;51.00
56538;DHT22;42435;53.292;6.000;2022-08-07T08:00:35;24.00;50.70
56538;DHT22;42435;53.292;6.000;2022-08-07T08:03:05;24.10;50.60
56538;DHT22;42435;53.292;6.000;2022-08-07T08:05:34;24.20;50.30
56538;DHT22;42435;53.292;6.000;2022-08-07T08:08:00;24.20;50.10
56538;DHT22;42435;53.292;6.000;2022-08-07T08:10:26;24.20;50.10
56538;DHT22;42435;53.292;6.000;2022-08-07T08:12:53;24.30;50.10
56538;DHT22;42435;53.292;6.000;2022-08-07T08:15:19;24.40;50.80
56538;DHT22;42435;53.292;6.000;2022-08-07T08:17:45;24.50;49.90
56538;DHT22;42435;53.292;6.000;2022-08-07T08:20:14;24.80;49.60
56538;DHT22;42435;53.292;6.000;2022-08-07T08:22:42;24.90;48.90
56538;DHT22;42435;53.292;6.000;2022-08-07T08:25:29;25.20;48.60
56538;DHT22;42435;53.292;6.000;2022-08-07T08:28:18;25.40;48.20
56538;DHT22;42435;53.292;6.000;2022-08-07T08:30:45;25.50;47.80
56538;DHT22;42435;53.292;6.000;2022-08-07T08:33:12;25.50;47.60
56538;DHT22;42435;53.292;6.000;2022-08-07T08:35:47;25.60;47.40
56538;DHT22;42435;53.292;6.000;2022-08-07T08:38:14;25.60;46.60
56538;DHT22;42435;53.292;6.000;2022-08-07T08:40:45;25.40;47.10
56538;DHT22;42435;53.292;6.000;2022-08-07T08:43:32;25.20;47.60
56538;DHT22;42435;53.292;6.000;2022-08-07T08:54:48;24.60;48.20
56538;DHT22;42435;53.292;6.000;2022-08-07T08:57:57;24.90;47.80
56538;DHT22;42435;53.292;6.000;2022-08-07T09:00:25;25.30;47.10
56538;DHT22;42435;53.292;6.000;2022-08-07T09:03:24;25.50;46.70
56538;DHT22;42435;53.292;6.000;2022-08-07T09:06:07;25.80;46.60
56538;DHT22;42435;53.292;6.000;2022-08-07T09:14:10;26.50;44.90
56538;DHT22;42435;53.292;6.000;2022-08-07T09:19:44;26.70;44.30
56538;DHT22;42435;53.292;6.000;2022-08-07T09:25:20;26.20;45.00
56538;DHT22;42435;53.292;6.000;2022-08-07T09:28:07;26.20;44.80
56538;DHT22;42435;53.292;6.000;2022-08-07T09:31:02;26.30;44.60
56538;DHT22;42435;53.292;6.000;2022-08-07T09:36:45;26.70;43.80
56538;DHT22;42435;53.292;6.000;2022-08-07T09:42:01;27.30;43.10
56538;DHT22;42435;53.292;6.000;2022-08-07T09:47:32;27.70;42.30
56538;DHT22;42435;53.292;6.000;2022-08-07T09:50:24;27.70;42.40
56538;DHT22;42435;53.292;6.000;2022-08-07T09:53:00;27.70;41.70
56538;DHT22;42435;53.292;6.000;2022-08-07T09:55:52;27.50;41.10
56538;DHT22;42435;53.292;6.000;2022-08-07T10:04:20;27.20;42.70
56538;DHT22;42435;53.292;6.000;2022-08-07T10:18:20;28.20;40.30
56538;DHT22;42435;53.292;6.000;2022-08-07T10:26:56;29.50;39.20
56538;DHT22;42435;53.292;6.000;2022-08-07T10:29:43;29.70;38.60
56538;DHT22;42435;53.292;6.000;2022-08-07T10:35:14;29.20;39.40
56538;DHT22;42435;53.292;6.000;2022-08-07T10:43:33;28.30;40.70
56538;DHT22;42435;53.292;6.000;2022-08-07T10:46:04;28.00;41.20
56538;DHT22;42435;53.292;6.000;2022-08-07T10:51:21;27.70;41.70
56538;DHT22;42435;53.292;6.000;2022-08-07T11:02:33;26.50;42.30
56538;DHT22;42435;53.292;6.000;2022-08-07T11:05:33;26.40;42.40
56538;DHT22;42435;53.292;6.000;2022-08-07T11:10:57;26.60;42.20
56538;DHT22;42435;53.292;6.000;2022-08-07T11:13:51;26.90;41.50
56538;DHT22;42435;53.292;6.000;2022-08-07T11:16:53;26.90;41.20
56538;DHT22;42435;53.292;6.000;2022-08-07T11:22:14;26.60;41.40
56538;DHT22;42435;53.292;6.000;2022-08-07T11:27:32;27.00;40.70
56538;DHT22;42435;53.292;6.000;2022-08-07T11:30:05;27.20;40.00
56538;DHT22;42435;53.292;6.000;2022-08-07T11:32:50;27.60;39.40
56538;DHT22;42435;53.292;6.000;2022-08-07T11:35:38;28.00;38.90
56538;DHT22;42435;53.292;6.000;2022-08-07T11:38:26;28.30;38.30
56538;DHT22;42435;53.292;6.000;2022-08-07T11:40:59;28.60;38.00
56538;DHT22;42435;53.292;6.000;2022-08-07T11:43:32;28.80;37.60
56538;DHT22;42435;53.292;6.000;2022-08-07T11:57:08;29.60;35.90
56538;DHT22;42435;53.292;6.000;2022-08-07T12:07:35;30.30;35.50
56538;DHT22;42435;53.292;6.000;2022-08-07T12:12:50;30.60;34.40
56538;DHT22;42435;53.292;6.000;2022-08-07T12:15:22;31.00;32.50
56538;DHT22;42435;53.292;6.000;2022-08-07T12:17:54;30.90;33.50
56538;DHT22;42435;53.292;6.000;2022-08-07T12:24:06;31.00;33.50
56538;DHT22;42435;53.292;6.000;2022-08-07T12:26:52;31.20;33.30
56538;DHT22;42435;53.292;6.000;2022-08-07T12:29:24;31.40;33.10
56538;DHT22;42435;53.292;6.000;2022-08-07T12:34:35;31.10;32.90
56538;DHT22;42435;53.292;6.000;2022-08-07T12:37:03;30.90;33.30
56538;DHT22;42435;53.292;6.000;2022-08-07T12:39:31;30.70;34.30
56538;DHT22;42435;53.292;6.000;2022-08-07T12:42:00;30.70;34.40
56538;DHT22;42435;53.292;6.000;2022-08-07T12:44:27;30.50;35.40
56538;DHT22;42435;53.292;6.000;2022-08-07T12:47:08;30.30;35.30
56538;DHT22;42435;53.292;6.000;2022-08-07T12:52:59;29.70;36.60
56538;DHT22;42435;53.292;6.000;2022-08-07T12:57:58;29.20;37.30
56538;DHT22;42435;53.292;6.000;2022-08-07T13:00:57;29.20;37.30
56538;DHT22;42435;53.292;6.000;2022-08-07T13:03:48;28.90;38.70
56538;DHT22;42435;53.292;6.000;2022-08-07T13:12:04;28.90;37.40
56538;DHT22;42435;53.292;6.000;2022-08-07T13:14:50;28.90;37.70
56538;DHT22;42435;53.292;6.000;2022-08-07T13:19:59;28.00;39.60
56538;DHT22;42435;53.292;6.000;2022-08-07T13:22:49;27.70;40.00
56538;DHT22;42435;53.292;6.000;2022-08-07T13:25:31;27.60;40.40
56538;DHT22;42435;53.292;6.000;2022-08-07T13:28:03;27.50;40.10
56538;DHT22;42435;53.292;6.000;2022-08-07T13:30:33;27.50;40.10
56538;DHT22;42435;53.292;6.000;2022-08-07T13:33:44;27.60;40.10
56538;DHT22;42435;53.292;6.000;2022-08-07T13:36:24;27.90;39.20
56538;DHT22;42435;53.292;6.000;2022-08-07T13:39:00;28.00;38.10
56538;DHT22;42435;53.292;6.000;2022-08-07T13:41:47;28.40;38.70
56538;DHT22;42435;53.292;6.000;2022-08-07T13:44:19;28.80;37.80
56538;DHT22;42435;53.292;6.000;2022-08-07T13:46:46;29.10;37.20
56538;DHT22;42435;53.292;6.000;2022-08-07T13:49:16;29.40;36.70
56538;DHT22;42435;53.292;6.000;2022-08-07T13:51:44;29.40;36.90
56538;DHT22;42435;53.292;6.000;2022-08-07T13:54:12;29.50;36.40
56538;DHT22;42435;53.292;6.000;2022-08-07T13:56:40;29.50;36.20
56538;DHT22;42435;53.292;6.000;2022-08-07T13:59:18;29.40;37.10
56538;DHT22;42435;53.292;6.000;2022-08-07T14:01:51;29.30;36.40
56538;DHT22;42435;53.292;6.000;2022-08-07T14:04:19;29.20;35.80
56538;DHT22;42435;53.292;6.000;2022-08-07T14:06:49;29.00;36.30
56538;DHT22;42435;53.292;6.000;2022-08-07T14:09:20;29.10;35.50
56538;DHT22;42435;53.292;6.000;2022-08-07T14:11:52;29.20;36.80
56538;DHT22;42435;53.292;6.000;2022-08-07T14:14:20;29.20;37.30
56538;DHT22;42435;53.292;6.000;2022-08-07T14:16:52;29.10;36.70
56538;DHT22;42435;53.292;6.000;2022-08-07T14:19:32;29.10;37.20
56538;DHT22;42435;53.292;6.000;2022-08-07T14:22:00;29.30;37.30
56538;DHT22;42435;53.292;6.000;2022-08-07T14:24:41;29.60;37.50
56538;DHT22;42435;53.292;6.000;2022-08-07T14:27:12;29.70;37.50
56538;DHT22;42435;53.292;6.000;2022-08-07T14:29:41;29.40;38.40
56538;DHT22;42435;53.292;6.000;2022-08-07T14:32:09;28.90;38.90
56538;DHT22;42435;53.292;6.000;2022-08-07T14:34:40;28.50;39.90
56538;DHT22;42435;53.292;6.000;2022-08-07T14:37:09;28.70;40.50
56538;DHT22;42435;53.292;6.000;2022-08-07T14:39:39;28.90;40.10
56538;DHT22;42435;53.292;6.000;2022-08-07T14:42:09;29.00;40.10
56538;DHT22;42435;53.292;6.000;2022-08-07T14:44:37;29.40;40.10
56538;DHT22;42435;53.292;6.000;2022-08-07T14:47:05;29.50;38.50
56538;DHT22;42435;53.292;6.000;2022-08-07T14:49:33;29.50;37.90
56538;DHT22;42435;53.292;6.000;2022-08-07T14:52:00;29.50;38.30
56538;DHT22;42435;53.292;6.000;2022-08-07T14:54:32;29.60;38.00
56538;DHT22;42435;53.292;6.000;2022-08-07T14:57:00;29.60;37.90
56538;DHT22;42435;53.292;6.000;2022-08-07T14:59:27;29.70;38.00
56538;DHT22;42435;53.292;6.000;2022-08-07T15:01:56;29.70;37.60
56538;DHT22;42435;53.292;6.000;2022-08-07T15:04:25;29.80;37.80
56538;DHT22;42435;53.292;6.000;2022-08-07T15:06:51;29.80;38.70
56538;DHT22;42435;53.292;6.000;2022-08-07T15:09:18;29.90;38.40
56538;DHT22;42435;53.292;6.000;2022-08-07T15:11:59;29.90;39.10
56538;DHT22;42435;53.292;6.000;2022-08-07T15:14:26;29.90;38.90
56538;DHT22;42435;53.292;6.000;2022-08-07T15:16:56;29.80;39.00
56538;DHT22;42435;53.292;6.000;2022-08-07T15:19:27;29.70;38.80
56538;DHT22;42435;53.292;6.000;2022-08-07T15:21:56;29.60;39.50
56538;DHT22;42435;53.292;6.000;2022-08-07T15:27:02;29.40;40.10
56538;DHT22;42435;53.292;6.000;2022-08-07T15:29:35;29.30;40.10
56538;DHT22;42435;53.292;6.000;2022-08-07T15:32:04;29.00;40.00
56538;DHT22;42435;53.292;6.000;2022-08-07T15:34:35;28.90;41.50
56538;DHT22;42435;53.292;6.000;2022-08-07T15:37:05;28.80;41.70
56538;DHT22;42435;53.292;6.000;2022-08-07T15:39:46;28.70;42.20
56538;DHT22;42435;53.292;6.000;2022-08-07T15:45:06;28.60;41.20
56538;DHT22;42435;53.292;6.000;2022-08-07T15:47:38;28.60;40.50
56538;DHT22;42435;53.292;6.000;2022-08-07T15:50:10;28.60;41.40
56538;DHT22;42435;53.292;6.000;2022-08-07T15:52:37;28.50;42.70
56538;DHT22;42435;53.292;6.000;2022-08-07T15:55:09;28.40;42.90
56538;DHT22;42435;53.292;6.000;2022-08-07T15:57:36;28.40;43.30
56538;DHT22;42435;53.292;6.000;2022-08-07T16:00:04;28.30;43.40
56538;DHT22;42435;53.292;6.000;2022-08-07T16:02:37;28.20;43.90
56538;DHT22;42435;53.292;6.000;2022-08-07T16:05:08;28.00;43.80
56538;DHT22;42435;53.292;6.000;2022-08-07T16:07:41;27.80;44.20
56538;DHT22;42435;53.292;6.000;2022-08-07T16:10:12;27.10;44.80
56538;DHT22;42435;53.292;6.000;2022-08-07T16:15:40;26.70;46.30
56538;DHT22;42435;53.292;6.000;2022-08-07T16:21:16;25.90;47.30
56538;DHT22;42435;53.292;6.000;2022-08-07T16:24:07;25.70;47.70
56538;DHT22;42435;53.292;6.000;2022-08-07T16:29:35;25.70;47.90
56538;DHT22;42435;53.292;6.000;2022-08-07T16:32:11;25.70;47.70
56538;DHT22;42435;53.292;6.000;2022-08-07T16:34:57;25.80;48.00
56538;DHT22;42435;53.292;6.000;2022-08-07T16:45:56;26.00;48.10
56538;DHT22;42435;53.292;6.000;2022-08-07T16:51:01;26.20;47.40
56538;DHT22;42435;53.292;6.000;2022-08-07T16:56:24;26.20;47.30
56538;DHT22;42435;53.292;6.000;2022-08-07T17:04:52;26.00;47.40
56538;DHT22;42435;53.292;6.000;2022-08-07T17:07:30;25.90;47.10
56538;DHT22;42435;53.292;6.000;2022-08-07T17:10:02;25.80;47.60
56538;DHT22;42435;53.292;6.000;2022-08-07T17:20:49;25.50;48.30
56538;DHT22;42435;53.292;6.000;2022-08-07T17:23:30;25.40;48.30
56538;DHT22;42435;53.292;6.000;2022-08-07T17:29:11;25.30;48.60
56538;DHT22;42435;53.292;6.000;2022-08-07T17:34:36;25.10;49.10
56538;DHT22;42435;53.292;6.000;2022-08-07T17:37:09;25.10;49.10
56538;DHT22;42435;53.292;6.000;2022-08-07T17:39:45;25.00;49.30
56538;DHT22;42435;53.292;6.000;2022-08-07T17:42:26;24.90;49.50
56538;DHT22;42435;53.292;6.000;2022-08-07T17:45:10;24.90;49.70
56538;DHT22;42435;53.292;6.000;2022-08-07T17:47:46;24.90;49.80
56538;DHT22;42435;53.292;6.000;2022-08-07T17:50:25;25.00;49.60
56538;DHT22;42435;53.292;6.000;2022-08-07T17:53:34;25.20;49.30
56538;DHT22;42435;53.292;6.000;2022-08-07T17:56:13;25.40;49.20
56538;DHT22;42435;53.292;6.000;2022-08-07T17:59:41;25.60;48.80
56538;DHT22;42435;53.292;6.000;2022-08-07T18:02:06;25.90;48.50
56538;DHT22;42435;53.292;6.000;2022-08-07T18:10:53;25.30;48.40
56538;DHT22;42435;53.292;6.000;2022-08-07T18:13:44;24.80;49.10
56538;DHT22;42435;53.292;6.000;2022-08-07T18:16:33;24.40;49.60
56538;DHT22;42435;53.292;6.000;2022-08-07T18:19:08;24.10;49.70
56538;DHT22;42435;53.292;6.000;2022-08-07T18:21:36;23.70;50.00
56538;DHT22;42435;53.292;6.000;2022-08-07T18:29:19;23.00;51.40
56538;DHT22;42435;53.292;6.000;2022-08-07T18:32:39;22.90;51.90
56538;DHT22;42435;53.292;6.000;2022-08-07T18:35:10;22.70;52.20
56538;DHT22;42435;53.292;6.000;2022-08-07T18:38:15;22.50;53.10
56538;DHT22;42435;53.292;6.000;2022-08-07T18:43:27;22.10;53.60
56538;DHT22;42435;53.292;6.000;2022-08-07T18:46:02;22.00;54.20
56538;DHT22;42435;53.292;6.000;2022-08-07T18:58:44;21.20;54.40
56538;DHT22;42435;53.292;6.000;2022-08-07T19:04:34;20.90;56.10
56538;DHT22;42435;53.292;6.000;2022-08-07T19:07:13;20.70;56.70
56538;DHT22;42435;53.292;6.000;2022-08-07T19:09:56;20.60;57.10
56538;DHT22;42435;53.292;6.000;2022-08-07T19:13:17;20.50;57.70
56538;DHT22;42435;53.292;6.000;2022-08-07T19:18:34;20.20;58.50
56538;DHT22;42435;53.292;6.000;2022-08-07T19:21:15;20.20;58.80
56538;DHT22;42435;53.292;6.000;2022-08-07T19:23:48;20.00;58.80
56538;DHT22;42435;53.292;6.000;2022-08-07T19:26:18;19.90;57.80